Time;durP1;ratioP1;P1;durP2;ratioP2;P2;SDS_P1;SDS_P2;PMS_P1;PMS_P2;Temp;Humidity;BMP_temperature;BMP_pressure;BME280_temperature;BME280_humidity;BME280_pressure;Samples;Min_cycle;Max_cycle;Signal;HPM_P1;HPM_P2
2022/04/24 00:01:43;;;;;;;12.68;6.95;;;;;;;;;;4977931;28;20140;-74
2022/04/24 00:04:09;;;;;;;13.65;7.18;;;;;;;;;;4993442;28;20149;-74
2022/04/24 00:06:35;;;;;;;8.23;6.30;;;;;;;;;;4991768;28;20042;-74
2022/04/24 00:09:02;;;;;;;7.53;6.15;;;;;;;;;;4993747;28;20046;-74
2022/04/24 00:11:30;;;;;;;8.45;6.80;;;;;;;;;;5010574;28;20125;-75
2022/04/24 00:13:56;;;;;;;7.88;6.15;;;;;;;;;;4993714;28;20064;-74
2022/04/24 00:16:22;;;;;;;9.57;6.65;;;;;;;;;;4977670;28;20042;-74
2022/04/24 00:18:48;;;;;;;7.82;7.03;;;;;;;;;;4993230;28;20561;-73
2022/04/24 00:21:14;;;;;;;7.95;6.15;;;;;;;;;;4977703;28;20050;-74
2022/04/24 00:23:40;;;;;;;12.98;6.95;;;;;;;;;;4993371;28;20057;-75
2022/04/24 00:26:06;;;;;;;8.13;6.43;;;;;;;;;;4978186;28;20045;-74
2022/04/24 00:28:33;;;;;;;7.88;6.10;;;;;;;;;;4993256;28;20141;-74
2022/04/24 00:30:59;;;;;;;11.45;6.93;;;;;;;;;;4967287;28;20077;-76
2022/04/24 00:33:25;;;;;;;9.98;7.53;;;;;;;;;;4981533;28;20442;-74
2022/04/24 00:35:51;;;;;;;9.75;6.55;;;;;;;;;;4972477;28;20104;-74
2022/04/24 00:38:17;;;;;;;9.20;6.88;;;;;;;;;;4977278;28;20070;-74
2022/04/24 00:40:46;;;;;;;8.75;6.60;;;;;;;;;;4977064;28;20469;-74
2022/04/24 00:43:12;;;;;;;8.60;6.47;;;;;;;;;;4996154;28;20050;-75
2022/04/24 00:45:38;;;;;;;7.85;6.28;;;;;;;;;;4980708;28;20546;-78
2022/04/24 00:48:05;;;;;;;8.32;6.18;;;;;;;;;;4990890;28;20045;-75
2022/04/24 00:50:31;;;;;;;9.35;7.03;;;;;;;;;;4997229;28;20481;-75
2022/04/24 00:52:57;;;;;;;9.50;6.57;;;;;;;;;;5014657;28;20373;-75
2022/04/24 00:55:23;;;;;;;8.50;6.82;;;;;;;;;;4997633;28;20046;-75
2022/04/24 00:57:50;;;;;;;6.80;6.10;;;;;;;;;;4996819;28;20056;-74
2022/04/24 01:00:16;;;;;;;8.13;6.85;;;;;;;;;;4999371;28;20449;-75
2022/04/24 01:02:42;;;;;;;8.35;7.05;;;;;;;;;;4977563;28;20050;-75
2022/04/24 01:05:09;;;;;;;8.63;6.55;;;;;;;;;;5012168;28;20052;-74
2022/04/24 01:07:35;;;;;;;8.30;7.15;;;;;;;;;;5012302;28;20038;-74
2022/04/24 01:10:01;;;;;;;8.88;6.95;;;;;;;;;;4983593;28;20061;-75
2022/04/24 01:12:27;;;;;;;7.80;6.95;;;;;;;;;;4995800;28;20082;-75
2022/04/24 01:14:53;;;;;;;7.05;6.35;;;;;;;;;;4996204;28;20108;-75
2022/04/24 01:17:19;;;;;;;9.10;7.05;;;;;;;;;;4996936;28;20073;-74
2022/04/24 01:19:45;;;;;;;9.27;6.13;;;;;;;;;;4980644;28;20089;-74
2022/04/24 01:22:12;;;;;;;9.55;6.72;;;;;;;;;;5014298;28;20049;-74
2022/04/24 01:24:38;;;;;;;8.13;6.53;;;;;;;;;;4996175;28;20050;-74
2022/04/24 01:27:04;;;;;;;9.82;7.38;;;;;;;;;;4979673;28;20483;-74
2022/04/24 01:29:30;;;;;;;7.60;6.65;;;;;;;;;;4996814;28;20046;-74
2022/04/24 01:31:56;;;;;;;8.80;7.13;;;;;;;;;;4979804;28;20057;-74
2022/04/24 01:34:22;;;;;;;7.55;6.63;;;;;;;;;;4969625;28;20256;-75
2022/04/24 01:36:49;;;;;;;7.80;6.80;;;;;;;;;;4986989;28;20132;-74
2022/04/24 01:39:15;;;;;;;8.35;6.55;;;;;;;;;;5012020;28;20084;-75
2022/04/24 01:41:42;;;;;;;9.93;7.35;;;;;;;;;;4995884;28;20527;-75
2022/04/24 01:44:08;;;;;;;7.53;6.72;;;;;;;;;;4991237;28;20104;-74
2022/04/24 01:46:34;;;;;;;7.90;6.78;;;;;;;;;;4974948;28;20099;-74
2022/04/24 01:49:00;;;;;;;9.32;6.93;;;;;;;;;;4993628;28;20045;-76
2022/04/24 01:51:26;;;;;;;8.73;6.70;;;;;;;;;;4986291;28;20053;-75
2022/04/24 01:53:52;;;;;;;8.43;7.15;;;;;;;;;;5012490;28;20264;-74
2022/04/24 01:56:18;;;;;;;8.27;7.03;;;;;;;;;;4996430;28;20049;-74
2022/04/24 01:58:44;;;;;;;8.65;7.35;;;;;;;;;;4997059;28;20045;-74
2022/04/24 02:01:11;;;;;;;8.02;6.57;;;;;;;;;;4971844;28;20050;-74
2022/04/24 02:03:37;;;;;;;20.38;14.38;;;;;;;;;;4992444;28;20042;-75
2022/04/24 02:06:04;;;;;;;172.43;89.85;;;;;;;;;;4978495;28;20050;-75
2022/04/24 02:08:31;;;;;;;86.75;58.30;;;;;;;;;;4996180;28;20096;-74
2022/04/24 02:10:58;;;;;;;86.25;71.60;;;;;;;;;;4987026;28;20060;-74
2022/04/24 02:13:24;;;;;;;116.47;91.82;;;;;;;;;;4995501;28;20569;-74
2022/04/24 02:15:50;;;;;;;110.70;90.32;;;;;;;;;;4979839;28;20038;-74
2022/04/24 02:18:16;;;;;;;84.78;74.07;;;;;;;;;;4978907;28;20083;-75
2022/04/24 02:20:42;;;;;;;119.68;93.53;;;;;;;;;;4958074;28;20105;-74
2022/04/24 02:23:08;;;;;;;136.55;103.13;;;;;;;;;;4992535;28;20461;-74
2022/04/24 02:25:35;;;;;;;109.88;82.80;;;;;;;;;;4979707;28;20460;-74
2022/04/24 02:28:01;;;;;;;255.75;171.27;;;;;;;;;;4986458;28;20084;-74
2022/04/24 02:30:29;;;;;;;298.27;200.77;;;;;;;;;;4979249;28;20049;-75
2022/04/24 02:33:00;;;;;;;364.13;242.77;;;;;;;;;;4994484;28;20230;-75
2022/04/24 02:35:26;;;;;;;295.77;195.00;;;;;;;;;;4995852;28;20500;-74
2022/04/24 02:37:53;;;;;;;225.55;150.90;;;;;;;;;;4995151;28;20132;-74
2022/04/24 02:40:22;;;;;;;218.45;154.65;;;;;;;;;;5012674;28;20050;-75
2022/04/24 02:42:51;;;;;;;258.45;187.50;;;;;;;;;;4994918;28;20061;-74
2022/04/24 02:45:18;;;;;;;413.23;293.13;;;;;;;;;;4979392;28;20084;-74
2022/04/24 02:47:44;;;;;;;492.70;335.77;;;;;;;;;;4978397;28;20401;-74
2022/04/24 02:50:10;;;;;;;471.75;305.77;;;;;;;;;;5012026;28;20049;-76
2022/04/24 02:52:49;;;;;;;306.58;167.88;;;;;;;;;;4978248;28;20050;-74
2022/04/24 02:55:15;;;;;;;220.50;117.97;;;;;;;;;;4994690;28;20497;-74
2022/04/24 02:57:42;;;;;;;156.68;83.85;;;;;;;;;;4994313;28;20044;-74
2022/04/24 03:00:08;;;;;;;106.63;59.97;;;;;;;;;;4995365;28;20053;-74
2022/04/24 03:02:41;;;;;;;76.60;45.22;;;;;;;;;;5011578;28;20061;-74
2022/04/24 03:05:08;;;;;;;77.72;44.03;;;;;;;;;;4977813;28;20445;-74
2022/04/24 03:07:34;;;;;;;64.25;38.08;;;;;;;;;;5012054;28;20523;-75
2022/04/24 03:10:00;;;;;;;47.53;28.80;;;;;;;;;;4994270;28;20058;-74
2022/04/24 03:12:29;;;;;;;22.15;15.48;;;;;;;;;;4969758;28;20054;-75
2022/04/24 03:14:56;;;;;;;26.60;18.13;;;;;;;;;;4991230;28;20157;-74
2022/04/24 03:17:22;;;;;;;34.45;21.00;;;;;;;;;;4977803;28;20088;-75
2022/04/24 03:19:48;;;;;;;42.47;28.08;;;;;;;;;;4983015;28;20200;-77
2022/04/24 03:22:15;;;;;;;38.47;25.88;;;;;;;;;;4993482;28;20442;-76
2022/04/24 03:24:41;;;;;;;28.33;20.02;;;;;;;;;;4991769;28;20500;-75
2022/04/24 03:27:07;;;;;;;20.90;14.85;;;;;;;;;;4978308;28;20494;-76
2022/04/24 03:29:33;;;;;;;18.63;13.20;;;;;;;;;;5011955;28;20056;-74
2022/04/24 03:31:59;;;;;;;19.75;12.05;;;;;;;;;;4994137;28;20057;-74
2022/04/24 03:34:25;;;;;;;14.75;11.95;;;;;;;;;;4965785;28;20470;-74
2022/04/24 03:36:51;;;;;;;20.58;14.93;;;;;;;;;;4997258;28;20049;-74
2022/04/24 03:39:17;;;;;;;38.45;25.45;;;;;;;;;;4978905;28;20042;-74
2022/04/24 03:41:43;;;;;;;35.22;25.05;;;;;;;;;;4975920;28;20049;-74
2022/04/24 03:44:09;;;;;;;27.67;18.65;;;;;;;;;;4980184;28;20096;-74
2022/04/24 03:46:35;;;;;;;17.75;12.63;;;;;;;;;;4993260;28;20045;-77
2022/04/24 03:49:01;;;;;;;12.85;10.07;;;;;;;;;;4975225;28;20133;-74
2022/04/24 03:51:27;;;;;;;11.70;8.68;;;;;;;;;;5005938;28;20054;-75
2022/04/24 03:53:53;;;;;;;10.85;8.40;;;;;;;;;;4976002;28;20050;-75
2022/04/24 03:56:19;;;;;;;11.02;8.57;;;;;;;;;;4978264;28;20056;-75
2022/04/24 03:58:45;;;;;;;12.60;9.40;;;;;;;;;;4993747;28;20049;-74
2022/04/24 04:01:12;;;;;;;14.15;9.13;;;;;;;;;;4994523;28;20054;-74
2022/04/24 04:03:38;;;;;;;10.20;8.60;;;;;;;;;;4978100;28;20072;-74
2022/04/24 04:06:04;;;;;;;10.32;8.82;;;;;;;;;;4977652;28;20041;-75
2022/04/24 04:08:30;;;;;;;10.93;9.15;;;;;;;;;;5011437;28;20057;-74
2022/04/24 04:10:56;;;;;;;11.20;8.93;;;;;;;;;;4993182;28;20042;-74
2022/04/24 04:13:22;;;;;;;12.80;9.18;;;;;;;;;;5010951;28;20128;-74
2022/04/24 04:15:49;;;;;;;11.45;8.60;;;;;;;;;;4993144;28;20081;-74
2022/04/24 04:18:15;;;;;;;14.10;9.57;;;;;;;;;;4997220;28;20054;-74
2022/04/24 04:20:41;;;;;;;11.75;9.55;;;;;;;;;;4997931;28;20494;-74
2022/04/24 04:23:07;;;;;;;11.48;8.65;;;;;;;;;;4997526;28;20507;-74
2022/04/24 04:25:33;;;;;;;12.77;9.18;;;;;;;;;;4981294;28;20046;-74
2022/04/24 04:27:59;;;;;;;11.57;8.95;;;;;;;;;;4997163;28;20050;-74
2022/04/24 04:30:25;;;;;;;13.48;9.85;;;;;;;;;;4997211;28;20050;-74
2022/04/24 04:32:51;;;;;;;12.93;9.13;;;;;;;;;;4962705;28;20057;-75
2022/04/24 04:35:22;;;;;;;14.05;10.25;;;;;;;;;;4983026;28;20045;-75
2022/04/24 04:37:49;;;;;;;15.43;10.95;;;;;;;;;;4991268;28;20041;-74
2022/04/24 04:40:16;;;;;;;13.45;10.38;;;;;;;;;;4996974;28;20046;-74
2022/04/24 04:42:42;;;;;;;13.68;9.23;;;;;;;;;;4997812;28;20089;-74
2022/04/24 04:45:09;;;;;;;10.27;8.50;;;;;;;;;;5014201;28;20045;-73
2022/04/24 04:47:35;;;;;;;12.95;9.10;;;;;;;;;;4997365;28;20046;-74
2022/04/24 04:50:02;;;;;;;13.45;8.70;;;;;;;;;;5014504;28;20053;-74
2022/04/24 04:52:28;;;;;;;11.23;8.80;;;;;;;;;;4994584;28;20077;-74
2022/04/24 04:54:54;;;;;;;12.43;8.52;;;;;;;;;;4989271;28;20045;-74
2022/04/24 04:57:20;;;;;;;15.23;8.95;;;;;;;;;;4981005;28;20133;-75
2022/04/24 04:59:46;;;;;;;11.63;9.07;;;;;;;;;;4987389;28;20549;-74
2022/04/24 05:02:13;;;;;;;12.18;8.85;;;;;;;;;;4978924;28;20045;-74
2022/04/24 05:04:43;;;;;;;13.23;9.30;;;;;;;;;;5004457;28;20055;-74
2022/04/24 05:07:09;;;;;;;12.15;9.43;;;;;;;;;;4967102;28;20432;-74
2022/04/24 05:09:35;;;;;;;12.52;9.52;;;;;;;;;;4995391;28;20058;-74
2022/04/24 05:12:01;;;;;;;11.80;8.23;;;;;;;;;;4989639;28;20077;-74
2022/04/24 05:14:28;;;;;;;12.55;9.02;;;;;;;;;;4987774;28;20385;-75
2022/04/24 05:16:54;;;;;;;12.15;8.18;;;;;;;;;;4980770;28;20046;-75
2022/04/24 05:19:21;;;;;;;12.40;9.55;;;;;;;;;;4996162;28;20054;-73
2022/04/24 05:21:47;;;;;;;11.88;8.82;;;;;;;;;;5008949;28;20514;-76
2022/04/24 05:24:13;;;;;;;10.50;8.48;;;;;;;;;;4974500;28;20192;-75
2022/04/24 05:26:40;;;;;;;10.75;8.88;;;;;;;;;;4980898;28;20398;-75
2022/04/24 05:29:06;;;;;;;15.57;8.82;;;;;;;;;;4995430;28;20552;-75
2022/04/24 05:31:32;;;;;;;13.50;9.00;;;;;;;;;;5013083;28;20046;-76
2022/04/24 05:33:58;;;;;;;10.95;8.85;;;;;;;;;;4983897;28;20477;-76
2022/04/24 05:36:24;;;;;;;13.40;9.60;;;;;;;;;;4985194;28;20046;-76
2022/04/24 05:38:50;;;;;;;12.73;10.05;;;;;;;;;;4980018;28;20046;-73
2022/04/24 05:41:16;;;;;;;17.65;9.07;;;;;;;;;;4995651;28;20469;-74
2022/04/24 05:43:43;;;;;;;13.35;9.18;;;;;;;;;;4965526;28;20497;-74
2022/04/24 05:46:09;;;;;;;12.80;9.02;;;;;;;;;;4993682;28;20073;-73
2022/04/24 05:48:35;;;;;;;16.02;9.65;;;;;;;;;;4996218;28;20053;-74
2022/04/24 05:51:01;;;;;;;12.20;9.30;;;;;;;;;;5012091;28;20046;-74
2022/04/24 05:53:27;;;;;;;12.18;8.70;;;;;;;;;;4964501;28;20058;-74
2022/04/24 05:55:53;;;;;;;12.75;9.23;;;;;;;;;;5012354;28;20046;-74
2022/04/24 05:58:19;;;;;;;12.20;9.52;;;;;;;;;;4996794;28;20050;-74
2022/04/24 06:00:45;;;;;;;10.75;8.77;;;;;;;;;;4995865;28;20108;-74
2022/04/24 06:03:11;;;;;;;15.05;9.55;;;;;;;;;;5012513;28;20077;-74
2022/04/24 06:05:37;;;;;;;12.15;9.40;;;;;;;;;;4995877;28;20073;-74
2022/04/24 06:08:04;;;;;;;11.30;8.45;;;;;;;;;;4978973;28;20096;-74
2022/04/24 06:10:30;;;;;;;13.85;9.52;;;;;;;;;;4964060;28;20141;-75
2022/04/24 06:12:57;;;;;;;12.43;9.20;;;;;;;;;;4997010;28;20050;-74
2022/04/24 06:15:27;;;;;;;12.88;8.85;;;;;;;;;;4963026;28;20042;-74
2022/04/24 06:17:54;;;;;;;10.75;8.52;;;;;;;;;;4991537;28;20062;-74
2022/04/24 06:20:21;;;;;;;10.70;8.15;;;;;;;;;;4992615;28;20108;-75
2022/04/24 06:22:48;;;;;;;9.63;8.50;;;;;;;;;;4959711;28;20130;-77
2022/04/24 06:25:15;;;;;;;11.07;7.63;;;;;;;;;;4975747;28;20050;-74
2022/04/24 06:27:42;;;;;;;11.43;7.82;;;;;;;;;;4977441;28;20085;-75
2022/04/24 06:30:08;;;;;;;12.07;7.63;;;;;;;;;;4976758;28;20077;-74
2022/04/24 06:32:39;;;;;;;11.95;7.40;;;;;;;;;;4994431;28;20051;-74
2022/04/24 06:35:05;;;;;;;7.35;6.18;;;;;;;;;;4974326;28;20065;-77
2022/04/24 06:37:31;;;;;;;10.70;6.60;;;;;;;;;;4959859;28;20452;-74
2022/04/24 06:39:57;;;;;;;11.68;6.93;;;;;;;;;;4967296;28;20060;-74
2022/04/24 06:42:23;;;;;;;10.35;6.05;;;;;;;;;;4996346;28;20054;-76
2022/04/24 06:44:49;;;;;;;8.18;5.95;;;;;;;;;;4974484;28;20050;-75
2022/04/24 06:47:15;;;;;;;7.80;5.80;;;;;;;;;;4977887;28;20126;-75
2022/04/24 06:49:41;;;;;;;9.18;5.25;;;;;;;;;;4962823;28;20058;-74
2022/04/24 06:52:08;;;;;;;8.02;5.40;;;;;;;;;;4988975;28;20393;-74
2022/04/24 06:54:34;;;;;;;10.55;5.30;;;;;;;;;;5007969;28;20050;-74
2022/04/24 06:57:01;;;;;;;9.88;5.20;;;;;;;;;;4985668;28;20054;-75
2022/04/24 06:59:28;;;;;;;5.53;4.53;;;;;;;;;;4969552;28;20173;-75
2022/04/24 07:01:54;;;;;;;;;;;;;;;;;;4976529;28;20054;-74
2022/04/24 07:04:20;;;;;;;;;;;;;;;;;;5009251;28;20404;-76
2022/04/24 07:06:46;;;;;;;;;;;;;;;;;;4995439;28;19921;-77
2022/04/24 07:09:11;;;;;;;;;;;;;;;;;;4988468;28;19926;-74
2022/04/24 07:11:38;;;;;;;;;;;;;;;;;;4994859;28;20050;-74
2022/04/24 07:14:04;;;;;;;;;;;;;;;;;;4994954;28;20008;-75
2022/04/24 07:16:30;;;;;;;;;;;;;;;;;;4980862;28;20012;-75
2022/04/24 07:18:56;;;;;;;;;;;;;;;;;;5010458;28;19921;-75
2022/04/24 07:21:22;;;;;;;;;;;;;;;;;;4995636;28;19929;-75
2022/04/24 07:23:48;;;;;;;;;;;;;;;;;;4978774;28;19921;-74
2022/04/24 07:26:14;;;;;;;;;;;;;;;;;;5013240;28;19926;-74
2022/04/24 07:28:40;;;;;;;;;;;;;;;;;;4995023;28;19925;-76
2022/04/24 07:31:06;;;;;;;;;;;;;;;;;;4994537;28;20430;-74
2022/04/24 07:33:32;;;;;;;;;;;;;;;;;;4995152;28;19921;-74
2022/04/24 07:35:58;;;;;;;;;;;;;;;;;;5005414;28;19925;-75
2022/04/24 07:38:24;;;;;;;;;;;;;;;;;;5017528;28;19932;-75
2022/04/24 07:40:50;;;;;;;;;;;;;;;;;;4978572;28;20011;-75
2022/04/24 07:43:16;;;;;;;;;;;;;;;;;;4994368;28;19921;-75
2022/04/24 07:45:42;;;;;;;;;;;;;;;;;;4978290;28;19967;-75
2022/04/24 07:48:08;;;;;;;;;;;;;;;;;;4993937;28;19921;-74
2022/04/24 07:50:34;;;;;;;;;;;;;;;;;;5027237;28;19925;-75
2022/04/24 07:53:00;;;;;;;;;;;;;;;;;;5000313;28;20428;-75
2022/04/24 07:55:26;;;;;;;;;;;;;;;;;;4985375;28;19933;-75
2022/04/24 07:57:53;;;;;;;;;;;;;;;;;;4985479;28;19975;-75
2022/04/24 08:00:20;;;;;;;;;;;;;;;;;;5000495;28;19932;-75
2022/04/24 08:02:46;;;;;;;;;;;;;;;;;;5022401;28;19941;-75
2022/04/24 08:05:12;;;;;;;;;;;;;;;;;;4983255;28;19921;-75
2022/04/24 08:07:38;;;;;;;;;;;;;;;;;;4990901;28;20009;-75
2022/04/24 08:10:04;;;;;;;;;;;;;;;;;;5017872;28;20008;-77
2022/04/24 08:12:30;;;;;;;;;;;;;;;;;;4997917;28;19928;-75
2022/04/24 08:14:56;;;;;;;;;;;;;;;;;;4989884;28;20001;-78
2022/04/24 08:17:22;;;;;;;;;;;;;;;;;;5017824;28;20383;-75
2022/04/24 08:19:48;;;;;;;;;;;;;;;;;;5017541;28;20422;-74
2022/04/24 08:22:14;;;;;;;;;;;;;;;;;;5000828;28;20008;-75
2022/04/24 08:24:40;;;;;;;;;;;;;;;;;;4997502;28;19952;-76
2022/04/24 08:27:06;;;;;;;;;;;;;;;;;;4981560;28;19928;-75
2022/04/24 08:29:32;;;;;;;;;;;;;;;;;;4993324;28;20440;-75
2022/04/24 08:31:58;;;;;;;;;;;;;;;;;;4988510;28;19922;-75
2022/04/24 08:34:24;;;;;;;;;;;;;;;;;;4979714;28;19929;-75
2022/04/24 08:36:50;;;;;;;;;;;;;;;;;;4998853;28;19925;-74
2022/04/24 08:39:16;;;;;;;;;;;;;;;;;;4997062;28;20001;-74
2022/04/24 08:41:42;;;;;;;;;;;;;;;;;;4992528;28;19925;-77
2022/04/24 08:44:08;;;;;;;;;;;;;;;;;;4999686;28;19921;-75
2022/04/24 08:46:34;;;;;;;;;;;;;;;;;;5001827;28;19921;-75
2022/04/24 08:49:00;;;;;;;;;;;;;;;;;;5000535;28;19921;-75
2022/04/24 08:51:26;;;;;;;;;;;;;;;;;;4983851;28;19921;-75
2022/04/24 08:53:52;;;;;;;;;;;;;;;;;;4990806;28;19926;-75
2022/04/24 08:56:18;;;;;;;;;;;;;;;;;;4998911;28;20203;-75
2022/04/24 08:58:44;;;;;;;;;;;;;;;;;;4980900;28;19922;-75
2022/04/24 09:01:10;;;;;;;;;;;;;;;;;;4987284;28;19921;-76
2022/04/24 09:03:36;;;;;;;5.80;2.83;;;;;;;;;;4997408;28;19944;-75
2022/04/24 09:06:02;;;;;;;4.10;2.53;;;;;;;;;;4996273;28;20397;-75
2022/04/24 09:08:30;;;;;;;4.35;2.60;;;;;;;;;;4994065;28;20050;-75
2022/04/24 09:11:00;;;;;;;3.00;2.20;;;;;;;;;;4953429;28;20081;-75
2022/04/24 09:14:19;;;;;;;5.45;2.97;;;;;;;;;;5013516;28;20482;-76
2022/04/24 09:16:20;;;;;;;5.45;2.97;;;;;;;;;;4966998;28;20573;-75
2022/04/24 09:18:46;;;;;;;7.63;3.58;;;;;;;;;;4996921;28;20370;-74
2022/04/24 09:21:13;;;;;;;6.72;3.42;;;;;;;;;;4979986;28;20048;-75
2022/04/24 09:23:42;;;;;;;5.22;2.70;;;;;;;;;;4993641;28;20046;-74
2022/04/24 09:26:12;;;;;;;4.93;2.92;;;;;;;;;;5010077;28;20041;-75
2022/04/24 09:28:41;;;;;;;6.90;3.10;;;;;;;;;;5001978;28;20108;-75
2022/04/24 09:31:08;;;;;;;5.80;3.40;;;;;;;;;;4996667;28;20132;-74
2022/04/24 09:33:40;;;;;;;8.02;3.33;;;;;;;;;;4996671;28;20053;-75
2022/04/24 09:36:07;;;;;;;5.03;3.03;;;;;;;;;;5006789;28;20108;-74
2022/04/24 09:38:40;;;;;;;6.50;3.00;;;;;;;;;;4988572;28;20409;-74
2022/04/24 09:41:14;;;;;;;4.63;3.35;;;;;;;;;;4991912;28;20108;-74
2022/04/24 09:43:41;;;;;;;5.70;2.95;;;;;;;;;;4982655;28;20072;-75
2022/04/24 09:46:07;;;;;;;7.07;3.10;;;;;;;;;;4984824;28;20046;-75
2022/04/24 09:48:33;;;;;;;3.92;2.83;;;;;;;;;;4992170;28;20057;-75
2022/04/24 09:51:00;;;;;;;5.07;2.53;;;;;;;;;;4995634;28;20053;-76
2022/04/24 09:53:27;;;;;;;4.90;2.80;;;;;;;;;;4978899;28;20053;-75
2022/04/24 09:55:54;;;;;;;4.35;2.60;;;;;;;;;;4996138;28;20085;-74
2022/04/24 09:58:22;;;;;;;6.25;3.08;;;;;;;;;;5013118;28;20052;-75
2022/04/24 10:00:51;;;;;;;4.18;3.15;;;;;;;;;;4996098;28;20081;-75
2022/04/24 10:03:18;;;;;;;3.55;2.38;;;;;;;;;;4996136;28;20124;-75
2022/04/24 10:05:47;;;;;;;4.35;2.40;;;;;;;;;;4990413;28;20535;-76
2022/04/24 10:08:14;;;;;;;4.68;2.65;;;;;;;;;;4979384;28;20056;-74
2022/04/24 10:10:40;;;;;;;5.65;2.85;;;;;;;;;;4995938;28;20135;-76
2022/04/24 10:13:10;;;;;;;9.48;2.63;;;;;;;;;;5010460;28;21567;-74
2022/04/24 10:15:37;;;;;;;4.13;2.35;;;;;;;;;;4978273;28;20603;-74
2022/04/24 10:18:13;;;;;;;4.60;2.38;;;;;;;;;;4995749;28;20072;-75
2022/04/24 10:20:42;;;;;;;6.07;3.10;;;;;;;;;;4995346;28;20045;-74
2022/04/24 10:23:12;;;;;;;4.85;3.10;;;;;;;;;;4995387;28;20041;-76
2022/04/24 10:25:42;;;;;;;7.22;2.80;;;;;;;;;;4977621;28;20056;-74
2022/04/24 10:28:11;;;;;;;4.80;2.47;;;;;;;;;;4995642;28;20041;-74
2022/04/24 10:30:38;;;;;;;3.92;2.10;;;;;;;;;;4979051;28;20157;-74
2022/04/24 10:33:15;;;;;;;5.47;2.70;;;;;;;;;;5012240;28;20053;-74
2022/04/24 10:35:54;;;;;;;5.57;2.90;;;;;;;;;;4989643;28;20083;-75
2022/04/24 10:38:24;;;;;;;5.05;2.45;;;;;;;;;;5011788;28;20516;-76
2022/04/24 10:40:59;;;;;;;6.03;2.45;;;;;;;;;;4978977;28;20053;-74
2022/04/24 10:43:26;;;;;;;7.35;3.30;;;;;;;;;;4990568;28;20049;-75
2022/04/24 10:45:52;;;;;;;5.10;3.13;;;;;;;;;;4985940;28;20046;-75
2022/04/24 10:48:19;;;;;;;6.60;2.90;;;;;;;;;;4993547;28;20053;-74
2022/04/24 10:50:47;;;;;;;5.22;3.00;;;;;;;;;;4989935;28;20125;-74
2022/04/24 10:53:13;;;;;;;5.32;2.78;;;;;;;;;;4961421;28;20185;-75
2022/04/24 10:55:40;;;;;;;4.13;2.75;;;;;;;;;;4970208;28;20082;-75
2022/04/24 10:58:06;;;;;;;5.03;2.88;;;;;;;;;;5012448;28;20147;-78
2022/04/24 11:00:38;;;;;;;7.78;2.80;;;;;;;;;;4994223;28;20049;-74
2022/04/24 11:03:14;;;;;;;4.88;2.70;;;;;;;;;;4995573;28;20075;-74
2022/04/24 11:05:46;;;;;;;8.73;2.33;;;;;;;;;;4978740;28;20072;-74
2022/04/24 11:08:20;;;;;;;4.68;2.17;;;;;;;;;;4994166;28;20505;-74
2022/04/24 11:10:48;;;;;;;4.53;2.80;;;;;;;;;;4993992;28;20552;-73
2022/04/24 11:13:16;;;;;;;5.75;2.38;;;;;;;;;;5009603;28;20096;-74
2022/04/24 11:15:44;;;;;;;4.70;2.67;;;;;;;;;;4985688;28;20065;-74
2022/04/24 11:18:20;;;;;;;6.72;2.88;;;;;;;;;;4993729;28;20054;-74
2022/04/24 11:20:57;;;;;;;6.75;3.75;;;;;;;;;;4991950;28;20050;-74
2022/04/24 11:23:25;;;;;;;8.20;4.03;;;;;;;;;;5009972;28;20076;-74
2022/04/24 11:25:55;;;;;;;9.68;3.97;;;;;;;;;;4991355;28;20374;-75
2022/04/24 11:28:22;;;;;;;5.95;3.30;;;;;;;;;;4985315;28;20037;-75
2022/04/24 11:30:48;;;;;;;5.68;3.95;;;;;;;;;;4994151;28;20061;-74
2022/04/24 11:33:15;;;;;;;10.23;3.83;;;;;;;;;;4978501;28;20065;-74
2022/04/24 11:35:41;;;;;;;7.55;4.13;;;;;;;;;;4994216;28;20045;-74
2022/04/24 11:38:13;;;;;;;9.93;4.60;;;;;;;;;;4994445;28;20042;-74
2022/04/24 11:40:48;;;;;;;9.40;4.40;;;;;;;;;;4993447;28;20049;-75
2022/04/24 11:43:18;;;;;;;6.93;4.18;;;;;;;;;;5010206;28;20076;-74
2022/04/24 11:51:18;;;;;;;7.57;4.18;;;;;;;;;;4977514;28;20513;-73
2022/04/24 11:53:45;;;;;;;9.15;5.07;;;;;;;;;;5011014;28;20172;-75
2022/04/24 11:56:12;;;;;;;6.80;4.60;;;;;;;;;;4993633;28;20151;-75
2022/04/24 11:58:39;;;;;;;10.23;4.88;;;;;;;;;;4986365;28;20057;-75
2022/04/24 12:01:07;;;;;;;7.25;4.82;;;;;;;;;;4984611;28;20074;-75
2022/04/24 12:03:34;;;;;;;7.63;4.40;;;;;;;;;;4987506;28;20068;-75
2022/04/24 12:06:01;;;;;;;8.18;4.80;;;;;;;;;;4978010;28;20077;-77
2022/04/24 12:08:38;;;;;;;7.22;4.25;;;;;;;;;;4977712;28;20125;-75
2022/04/24 12:11:04;;;;;;;10.43;4.78;;;;;;;;;;4994301;28;20128;-74
2022/04/24 12:13:32;;;;;;;9.00;4.97;;;;;;;;;;4993789;28;20057;-74
2022/04/24 12:15:58;;;;;;;10.23;4.65;;;;;;;;;;4978438;28;20104;-74
2022/04/24 12:18:25;;;;;;;6.55;4.15;;;;;;;;;;5010176;28;20058;-75
2022/04/24 12:20:52;;;;;;;11.25;4.60;;;;;;;;;;4993338;28;20054;-75
2022/04/24 12:23:18;;;;;;;7.55;4.60;;;;;;;;;;4977085;28;20401;-75
2022/04/24 12:25:52;;;;;;;7.35;4.80;;;;;;;;;;4991444;28;20045;-74
2022/04/24 12:28:40;;;;;;;10.07;5.18;;;;;;;;;;4990643;28;20071;-73
2022/04/24 12:31:07;;;;;;;6.75;4.93;;;;;;;;;;4985535;28;20073;-74
2022/04/24 12:33:44;;;;;;;6.07;4.25;;;;;;;;;;5003977;28;20094;-74
2022/04/24 12:36:15;;;;;;;10.20;4.65;;;;;;;;;;4975465;28;20063;-74
2022/04/24 12:38:42;;;;;;;7.78;5.13;;;;;;;;;;5002564;28;20104;-75
2022/04/24 12:41:10;;;;;;;6.78;4.82;;;;;;;;;;4997740;28;20045;-74
2022/04/24 12:43:36;;;;;;;7.15;4.72;;;;;;;;;;4996763;28;20049;-77
2022/04/24 12:46:02;;;;;;;8.80;4.53;;;;;;;;;;4997777;28;20049;-75
2022/04/24 12:48:29;;;;;;;7.43;4.38;;;;;;;;;;4980684;28;20084;-74
2022/04/24 12:50:55;;;;;;;8.05;4.07;;;;;;;;;;4988871;28;20054;-75
2022/04/24 12:53:25;;;;;;;7.65;4.60;;;;;;;;;;4997137;28;20046;-76
2022/04/24 12:55:51;;;;;;;8.05;4.70;;;;;;;;;;4981821;28;20041;-75
2022/04/24 12:58:18;;;;;;;10.13;4.32;;;;;;;;;;4996614;28;20052;-75
2022/04/24 13:00:45;;;;;;;6.82;4.15;;;;;;;;;;4997471;28;20046;-75
2022/04/24 13:03:15;;;;;;;5.75;4.28;;;;;;;;;;4996415;28;20490;-75
2022/04/24 13:05:42;;;;;;;8.48;4.30;;;;;;;;;;5014332;28;20058;-75
2022/04/24 13:08:09;;;;;;;7.75;4.50;;;;;;;;;;4985262;28;20053;-74
2022/04/24 13:10:35;;;;;;;5.90;3.90;;;;;;;;;;4979953;28;20489;-75
2022/04/24 13:13:01;;;;;;;8.38;3.88;;;;;;;;;;4996603;28;20366;-75
2022/04/24 13:15:34;;;;;;;5.38;3.45;;;;;;;;;;4996481;28;20053;-75
2022/04/24 13:18:07;;;;;;;9.40;4.03;;;;;;;;;;4996171;28;20127;-75
2022/04/24 13:20:40;;;;;;;8.63;3.97;;;;;;;;;;5013820;28;20500;-74
2022/04/24 13:23:11;;;;;;;7.10;3.83;;;;;;;;;;4997413;28;20084;-74
2022/04/24 13:25:38;;;;;;;7.78;4.13;;;;;;;;;;4980317;28;20050;-74
2022/04/24 13:28:05;;;;;;;5.47;3.45;;;;;;;;;;4991909;28;20077;-74
2022/04/24 13:30:31;;;;;;;5.00;3.58;;;;;;;;;;5001963;28;20046;-74
2022/04/24 13:32:57;;;;;;;6.80;3.85;;;;;;;;;;4997162;28;20057;-74
2022/04/24 13:35:23;;;;;;;7.72;3.55;;;;;;;;;;4996535;28;20088;-74
2022/04/24 13:40:34;;;;;;;5.25;3.20;;;;;;;;;;4982519;28;20042;-74
2022/04/24 13:43:00;;;;;;;8.25;3.85;;;;;;;;;;5007152;28;20088;-77
2022/04/24 13:45:27;;;;;;;7.25;3.42;;;;;;;;;;4979258;28;20504;-75
2022/04/24 13:47:54;;;;;;;7.00;3.63;;;;;;;;;;4973919;28;20057;-75
2022/04/24 13:50:20;;;;;;;7.22;3.83;;;;;;;;;;4987776;28;20058;-76
2022/04/24 13:52:47;;;;;;;5.82;3.38;;;;;;;;;;4996754;28;20108;-75
2022/04/24 13:55:13;;;;;;;7.78;3.58;;;;;;;;;;5013008;28;20046;-74
2022/04/24 13:57:40;;;;;;;9.52;4.30;;;;;;;;;;4995512;28;20575;-76
2022/04/24 14:00:06;;;;;;;6.60;3.17;;;;;;;;;;5013137;28;20559;-74
2022/04/24 14:02:36;;;;;;;6.10;3.78;;;;;;;;;;4994710;28;20133;-74
2022/04/24 14:05:02;;;;;;;7.55;3.65;;;;;;;;;;4987839;28;20061;-74
2022/04/24 14:07:28;;;;;;;8.50;3.50;;;;;;;;;;4995555;28;20037;-75
2022/04/24 14:09:54;;;;;;;5.55;3.28;;;;;;;;;;5012429;28;20057;-75
2022/04/24 14:12:21;;;;;;;4.70;3.20;;;;;;;;;;5012030;28;20489;-76
2022/04/24 14:14:47;;;;;;;6.53;3.30;;;;;;;;;;4992900;28;20081;-74
2022/04/24 14:17:13;;;;;;;7.72;3.47;;;;;;;;;;4979382;28;20529;-74
2022/04/24 14:19:40;;;;;;;8.02;3.08;;;;;;;;;;4995851;28;20088;-74
2022/04/24 14:22:06;;;;;;;4.85;2.92;;;;;;;;;;4979350;28;20108;-74
2022/04/24 14:24:32;;;;;;;5.63;3.20;;;;;;;;;;4987861;28;20553;-75
2022/04/24 14:26:58;;;;;;;11.52;3.28;;;;;;;;;;4987521;28;20070;-74
2022/04/24 14:29:25;;;;;;;6.88;3.40;;;;;;;;;;4979091;28;20033;-75
2022/04/24 14:31:51;;;;;;;6.40;3.35;;;;;;;;;;4995041;28;20046;-76
2022/04/24 14:34:19;;;;;;;9.55;3.70;;;;;;;;;;4972344;28;20049;-73
2022/04/24 14:36:45;;;;;;;8.25;3.22;;;;;;;;;;5012471;28;20116;-74
2022/04/24 14:39:12;;;;;;;6.43;3.30;;;;;;;;;;4992319;28;20046;-74
2022/04/24 14:41:38;;;;;;;4.50;3.03;;;;;;;;;;4997440;28;20056;-74
2022/04/24 14:44:05;;;;;;;6.10;3.50;;;;;;;;;;4994468;28;20107;-74
2022/04/24 14:57:32;;;;;;;7.43;3.33;;;;;;;;;;4976236;28;20058;-75
2022/04/24 14:59:58;;;;;;;8.82;3.90;;;;;;;;;;5010766;28;20049;-75
2022/04/24 15:02:24;;;;;;;6.20;3.28;;;;;;;;;;4965156;28;20049;-75
2022/04/24 15:04:51;;;;;;;5.53;3.65;;;;;;;;;;5000509;28;20048;-75
2022/04/24 15:07:17;;;;;;;10.30;4.05;;;;;;;;;;5011990;28;20497;-74
2022/04/24 15:09:43;;;;;;;8.40;3.22;;;;;;;;;;4978632;28;20397;-75